createdAt,value
2019-04-28T00:00:56.459Z,31.65
2019-04-28T00:03:27.679Z,32.53
2019-04-28T00:05:58.750Z,28.98
2019-04-28T00:08:31.744Z,32.80
2019-04-28T00:11:02.098Z,32.70
2019-04-28T00:13:34.249Z,31.00
2019-04-28T00:16:06.864Z,29.63
2019-04-28T00:18:38.017Z,33.75
2019-04-28T00:21:10.995Z,34.75
2019-04-28T00:23:43.327Z,32.48
2019-04-28T00:26:15.600Z,30.90
2019-04-28T00:28:46.514Z,30.48
2019-04-28T00:31:17.731Z,28.77
2019-04-28T00:33:48.683Z,33.95
2019-04-28T00:36:21.449Z,34.35
2019-04-28T00:38:52.493Z,33.18
2019-04-28T00:41:23.271Z,36.60
2019-04-28T00:43:54.299Z,33.15
2019-04-28T00:46:27.593Z,38.33
2019-04-28T00:48:58.570Z,27.35
2019-04-28T00:51:31.358Z,35.03
2019-04-28T00:54:02.584Z,27.90
2019-04-28T00:56:33.592Z,35.30
2019-04-28T00:59:04.701Z,32.53
2019-04-28T01:01:36.858Z,29.52
2019-04-28T01:04:08.027Z,28.23
2019-04-28T01:06:39.335Z,34.43
2019-04-28T01:09:11.852Z,32.10
2019-04-28T01:11:42.881Z,26.02
2019-04-28T01:14:13.790Z,23.70
2019-04-28T01:16:46.474Z,22.05
2019-04-28T01:19:21.286Z,19.87
2019-04-28T01:21:53.848Z,25.92
2019-04-28T01:24:26.261Z,18.35
2019-04-28T01:27:00.375Z,20.20
2019-04-28T01:29:31.222Z,17.57
2019-04-28T01:32:04.195Z,19.35
2019-04-28T01:34:35.277Z,19.90
2019-04-28T01:37:11.344Z,18.23
2019-04-28T01:39:46.387Z,17.87
2019-04-28T01:42:16.306Z,19.48
2019-04-28T01:44:49.471Z,17.98
2019-04-28T01:47:20.739Z,21.70
2019-04-28T01:49:52.083Z,19.40
2019-04-28T01:52:23.212Z,16.35
2019-04-28T01:54:54.221Z,13.38
2019-04-28T01:57:30.070Z,18.92
2019-04-28T02:00:01.448Z,15.20
2019-04-28T02:02:32.393Z,15.03
2019-04-28T02:05:03.680Z,15.25
2019-04-28T02:10:40.047Z,17.23
2019-04-28T02:13:13.095Z,14.38
2019-04-28T02:15:44.552Z,15.03
2019-04-28T02:18:15.569Z,13.43
2019-04-28T02:24:21.190Z,14.35
2019-04-28T02:26:53.042Z,18.32
2019-04-28T02:29:26.367Z,14.78
2019-04-28T02:31:57.459Z,16.52
2019-04-28T02:34:32.718Z,15.43
2019-04-28T02:37:05.194Z,12.82
2019-04-28T02:39:40.905Z,20.50
2019-04-28T02:42:15.948Z,18.65
2019-04-28T02:44:47.137Z,16.93
2019-04-28T02:47:21.632Z,17.73
2019-04-28T02:49:53.696Z,17.65
2019-04-28T02:52:27.209Z,13.58
2019-04-28T02:55:03.114Z,14.43
2019-04-28T02:57:40.872Z,13.65
2019-04-28T03:00:13.544Z,17.82
2019-04-28T03:02:51.305Z,14.75
2019-04-28T03:05:21.948Z,18.10
2019-04-28T03:07:52.955Z,17.10
2019-04-28T03:10:23.985Z,17.92
2019-04-28T03:12:55.074Z,14.23
2019-04-28T03:15:26.370Z,12.15
2019-04-28T03:17:57.576Z,17.00
2019-04-28T03:20:32.528Z,12.95
2019-04-28T03:23:08.923Z,14.87
2019-04-28T03:25:37.208Z,12.03
2019-04-28T03:28:11.791Z,13.25
2019-04-28T03:30:44.584Z,14.87
2019-04-28T03:33:18.866Z,18.85
2019-04-28T03:35:53.630Z,16.90
2019-04-28T03:38:22.321Z,17.85
2019-04-28T03:40:53.175Z,13.62
2019-04-28T03:43:25.778Z,13.95
2019-04-28T03:46:02.800Z,16.75
2019-04-28T03:48:35.726Z,14.85
2019-04-28T03:51:07.261Z,13.40
2019-04-28T03:53:40.794Z,15.85
2019-04-28T03:56:11.356Z,14.93
2019-04-28T03:58:42.580Z,16.42
2019-04-28T04:01:13.415Z,23.05
2019-04-28T04:03:45.195Z,18.15
2019-04-28T04:06:16.262Z,15.05
2019-04-28T04:08:47.514Z,20.00
2019-04-28T04:11:22.918Z,19.48
2019-04-28T04:13:53.667Z,16.70
2019-04-28T04:16:26.034Z,16.60
2019-04-28T04:19:00.496Z,15.75
2019-04-28T04:21:36.612Z,17.50
2019-04-28T04:24:10.658Z,15.80
2019-04-28T04:26:43.064Z,11.75
2019-04-28T04:29:14.231Z,13.53
2019-04-28T04:31:45.133Z,14.63
2019-04-28T04:34:15.845Z,20.05
2019-04-28T04:36:47.013Z,15.20
2019-04-28T04:39:20.651Z,15.15
2019-04-28T04:41:55.081Z,18.60
2019-04-28T04:44:26.031Z,17.23
2019-04-28T04:47:02.806Z,19.32
2019-04-28T04:49:35.175Z,20.32
2019-04-28T04:52:06.310Z,18.57
2019-04-28T04:54:41.062Z,14.87
2019-04-28T04:57:12.133Z,23.15
2019-04-28T04:59:45.706Z,20.10
2019-04-28T05:02:29.577Z,13.98
2019-04-28T05:04:55.803Z,14.40
2019-04-28T05:07:27.383Z,13.13
2019-04-28T05:09:59.584Z,16.57
2019-04-28T05:12:32.117Z,14.47
2019-04-28T05:15:04.168Z,12.07
2019-04-28T05:17:40.185Z,14.05
2019-04-28T05:20:11.934Z,15.63
2019-04-28T05:22:50.588Z,15.48
2019-04-28T05:25:24.531Z,16.55
2019-04-28T05:27:59.379Z,17.40
2019-04-28T05:30:29.654Z,14.30
2019-04-28T05:33:00.819Z,15.98
2019-04-28T05:35:31.763Z,14.13
2019-04-28T05:38:16.773Z,16.12
2019-04-28T05:40:49.829Z,16.40
2019-04-28T05:43:21.468Z,22.30
2019-04-28T05:45:55.467Z,16.32
2019-04-28T05:48:30.237Z,15.15
2019-04-28T05:51:02.606Z,13.03
2019-04-28T05:53:35.354Z,14.78
2019-04-28T05:56:10.697Z,19.20
2019-04-28T05:58:43.039Z,15.53
2019-04-28T06:01:15.619Z,15.10
2019-04-28T06:03:47.509Z,11.60
2019-04-28T06:06:20.449Z,12.88
2019-04-28T06:08:54.110Z,16.65
2019-04-28T06:11:26.370Z,16.70
2019-04-28T06:13:59.745Z,12.80
2019-04-28T06:16:33.610Z,12.07
2019-04-28T06:19:10.262Z,13.90
2019-04-28T06:21:42.398Z,16.75
2019-04-28T06:24:14.689Z,15.98
2019-04-28T06:26:50.713Z,13.72
2019-04-28T06:29:24.060Z,12.58
2019-04-28T06:31:55.470Z,13.48
2019-04-28T06:34:26.700Z,13.43
2019-04-28T06:36:58.719Z,13.22
2019-04-28T06:39:30.005Z,13.68
2019-04-28T06:42:03.716Z,14.03
2019-04-28T06:44:38.704Z,13.85
2019-04-28T06:47:16.780Z,11.03
2019-04-28T06:49:49.980Z,13.80
2019-04-28T06:52:21.203Z,12.75
2019-04-28T06:55:02.789Z,11.45
2019-04-28T06:57:33.990Z,15.30
2019-04-28T07:00:06.937Z,12.85
2019-04-28T07:02:44.217Z,16.00
2019-04-28T07:05:18.221Z,13.38
2019-04-28T07:07:49.715Z,12.60
2019-04-28T07:10:25.497Z,11.20
2019-04-28T07:12:58.097Z,13.28
2019-04-28T07:15:41.098Z,13.60
2019-04-28T07:18:12.094Z,11.95
2019-04-28T07:20:42.650Z,13.85
2019-04-28T07:23:13.631Z,11.97
2019-04-28T07:25:44.750Z,12.47
2019-04-28T07:28:15.898Z,15.10
2019-04-28T07:30:46.843Z,12.13
2019-04-28T07:33:18.569Z,13.15
2019-04-28T07:35:49.680Z,12.20
2019-04-28T07:38:20.722Z,13.20
2019-04-28T07:40:53.210Z,10.70
2019-04-28T07:43:24.115Z,17.37
2019-04-28T07:45:57.829Z,15.28
2019-04-28T07:48:29.301Z,12.90
2019-04-28T07:51:02.824Z,13.13
2019-04-28T07:53:38.095Z,13.62
2019-04-28T07:56:09.550Z,12.90
2019-04-28T07:58:40.589Z,15.18
2019-04-28T08:01:13.068Z,11.08
2019-04-28T08:03:49.812Z,11.10
2019-04-28T08:06:16.623Z,11.53
2019-04-28T08:08:48.021Z,12.40
2019-04-28T08:11:21.806Z,10.82
2019-04-28T08:13:56.275Z,11.35
2019-04-28T08:16:27.328Z,10.88
2019-04-28T08:19:00.465Z,16.77
2019-04-28T08:21:34.597Z,11.00
2019-04-28T08:24:10.852Z,12.20
2019-04-28T08:26:42.145Z,12.33
2019-04-28T08:29:13.593Z,14.73
2019-04-28T08:31:47.738Z,11.85
2019-04-28T08:34:27.978Z,15.25
2019-04-28T08:36:59.688Z,11.85
2019-04-28T08:39:30.845Z,10.93
2019-04-28T08:42:01.832Z,12.58
2019-04-28T08:44:32.960Z,12.65
2019-04-28T08:47:04.516Z,11.68
2019-04-28T08:49:35.641Z,9.35
2019-04-28T08:52:11.969Z,12.28
2019-04-28T08:54:43.246Z,11.95
2019-04-28T08:57:14.120Z,10.18
2019-04-28T08:59:45.168Z,11.83
2019-04-28T09:02:16.332Z,11.75
2019-04-28T09:04:47.226Z,12.53
2019-04-28T09:07:18.115Z,14.38
2019-04-28T09:09:49.819Z,12.10
2019-04-28T09:12:20.638Z,14.53
2019-04-28T09:14:51.745Z,10.75
2019-04-28T09:17:22.898Z,10.95
2019-04-28T09:19:56.481Z,11.18
2019-04-28T09:22:27.489Z,10.72
2019-04-28T09:24:59.753Z,12.18
2019-04-28T09:27:30.946Z,10.25
2019-04-28T09:30:02.057Z,10.90
2019-04-28T09:32:36.128Z,14.28
2019-04-28T09:35:08.659Z,10.58
2019-04-28T09:37:42.470Z,16.25
2019-04-28T09:40:15.637Z,13.18
2019-04-28T09:42:48.052Z,11.33
2019-04-28T09:45:21.995Z,11.12
2019-04-28T09:47:52.983Z,10.38
2019-04-28T09:50:24.301Z,12.23
2019-04-28T09:52:55.630Z,9.13
2019-04-28T09:55:26.962Z,10.35
2019-04-28T09:57:58.160Z,12.40
2019-04-28T10:00:29.420Z,11.93
2019-04-28T10:03:04.069Z,14.55
2019-04-28T10:05:35.217Z,12.80
2019-04-28T10:08:14.842Z,12.35
2019-04-28T10:13:16.179Z,20.65
2019-04-28T10:15:47.322Z,26.27
2019-04-28T10:18:18.266Z,30.80
2019-04-28T10:20:49.203Z,29.40
2019-04-28T10:23:22.037Z,25.97
2019-04-28T10:25:52.589Z,24.57
2019-04-28T10:28:23.890Z,26.62
2019-04-28T10:30:54.739Z,24.95
2019-04-28T10:33:25.869Z,30.00
2019-04-28T10:35:59.144Z,31.82
2019-04-28T10:38:30.736Z,28.00
2019-04-28T10:41:02.983Z,26.17
2019-04-28T10:43:33.932Z,31.62
2019-04-28T10:46:04.990Z,26.12
2019-04-28T10:48:35.908Z,32.38
2019-04-28T10:51:07.141Z,30.55
2019-04-28T10:53:38.504Z,30.05
2019-04-28T10:56:09.336Z,26.45
2019-04-28T10:58:41.592Z,27.55
2019-04-28T11:01:12.848Z,30.32
2019-04-28T11:03:45.240Z,33.40
2019-04-28T11:06:16.488Z,33.28
2019-04-28T11:08:49.376Z,33.67
2019-04-28T11:11:22.977Z,33.40
2019-04-28T11:13:54.173Z,30.88
2019-04-28T11:16:26.509Z,32.67
2019-04-28T11:18:58.186Z,37.48
2019-04-28T11:21:29.325Z,34.10
2019-04-28T11:24:00.231Z,38.40
2019-04-28T11:26:33.141Z,36.98
2019-04-28T11:29:03.850Z,32.90
2019-04-28T11:31:35.160Z,39.63
2019-04-28T11:34:07.495Z,36.53
2019-04-28T11:36:39.015Z,35.92
2019-04-28T11:39:11.615Z,40.52
2019-04-28T11:41:42.671Z,36.75
2019-04-28T11:44:13.975Z,33.92
2019-04-28T11:46:45.180Z,36.17
2019-04-28T11:49:16.386Z,36.68
2019-04-28T11:51:47.727Z,29.80
2019-04-28T11:54:18.739Z,31.73
2019-04-28T11:56:50.848Z,30.32
2019-04-28T11:59:24.625Z,35.33
2019-04-28T12:01:55.873Z,34.55
2019-04-28T12:04:30.875Z,28.95
2019-04-28T12:07:01.956Z,36.98
2019-04-28T12:09:34.156Z,29.12
2019-04-28T12:12:11.766Z,30.92
2019-04-28T12:14:42.687Z,31.23
2019-04-28T12:17:14.843Z,37.38
2019-04-28T12:19:50.859Z,34.78
2019-04-28T12:22:21.795Z,29.48
2019-04-28T12:24:52.914Z,32.80
2019-04-28T12:27:24.293Z,33.90
2019-04-28T12:29:55.068Z,31.90
2019-04-28T12:32:26.022Z,34.40
2019-04-28T12:34:57.257Z,34.08
2019-04-28T12:37:28.380Z,32.20
2019-04-28T12:39:59.396Z,34.48
2019-04-28T12:42:30.478Z,35.52
2019-04-28T12:45:01.580Z,38.40
2019-04-28T12:47:36.614Z,41.95
2019-04-28T12:50:10.440Z,40.73
2019-04-28T12:52:41.435Z,34.95
2019-04-28T12:55:13.887Z,31.75
2019-04-28T12:57:48.284Z,32.38
2019-04-28T13:00:21.065Z,35.68
2019-04-28T13:03:04.715Z,31.52
2019-04-28T13:05:37.037Z,31.60
2019-04-28T13:08:10.091Z,33.55
2019-04-28T13:10:40.994Z,32.70
2019-04-28T13:13:12.303Z,35.05
2019-04-28T13:15:43.303Z,35.15
2019-04-28T13:18:15.792Z,33.53
2019-04-28T13:20:47.847Z,31.23
2019-04-28T13:23:18.920Z,34.80
2019-04-28T13:25:49.835Z,35.35
2019-04-28T13:28:21.120Z,29.48
2019-04-28T13:30:52.335Z,43.50
2019-04-28T13:33:24.565Z,32.28
2019-04-28T13:35:57.798Z,28.70
2019-04-28T13:38:28.627Z,47.60
2019-04-28T13:41:02.426Z,22.93
2019-04-28T13:43:33.597Z,20.92
2019-04-28T13:46:04.597Z,20.72
2019-04-28T13:48:35.638Z,17.55
2019-04-28T13:51:06.563Z,17.90
2019-04-28T13:53:38.547Z,16.75
2019-04-28T13:56:10.955Z,15.60
2019-04-28T13:58:42.493Z,12.73
2019-04-28T14:01:14.784Z,14.25
2019-04-28T14:03:47.582Z,11.80
2019-04-28T14:06:28.153Z,9.53
2019-04-28T14:08:52.437Z,14.13
2019-04-28T14:11:23.500Z,13.40
2019-04-28T14:13:54.513Z,14.35
2019-04-28T14:16:25.646Z,17.55
2019-04-28T14:18:56.587Z,10.00
2019-04-28T14:21:29.292Z,13.32
2019-04-28T14:24:00.664Z,16.65
2019-04-28T14:26:31.914Z,13.08
2019-04-28T14:29:04.566Z,13.85
2019-04-28T14:31:35.615Z,13.75
2019-04-28T14:34:06.892Z,13.05
2019-04-28T14:36:42.365Z,15.48
2019-04-28T14:39:12.041Z,12.60
2019-04-28T14:41:43.157Z,11.80
2019-04-28T14:44:17.323Z,15.70
2019-04-28T14:46:47.054Z,11.40
2019-04-28T14:49:18.126Z,14.63
2019-04-28T14:51:51.975Z,9.88
2019-04-28T14:54:23.718Z,15.32
2019-04-28T14:56:59.051Z,13.78
2019-04-28T14:59:30.339Z,11.45
2019-04-28T15:02:03.107Z,17.15
2019-04-28T15:04:35.787Z,12.68
2019-04-28T15:07:08.366Z,13.08
2019-04-28T15:09:41.161Z,12.75
2019-04-28T15:12:12.117Z,12.93
2019-04-28T15:14:43.615Z,14.43
2019-04-28T15:17:14.645Z,14.93
2019-04-28T15:19:45.927Z,10.55
2019-04-28T15:22:16.917Z,11.25
2019-04-28T15:24:47.789Z,12.30
2019-04-28T15:27:18.987Z,13.32
2019-04-28T15:29:50.981Z,12.35
2019-04-28T15:32:23.308Z,12.43
2019-04-28T15:34:54.263Z,13.20
2019-04-28T15:37:25.591Z,15.20
2019-04-28T15:39:56.885Z,16.67
2019-04-28T15:42:28.863Z,13.60
2019-04-28T15:45:00.338Z,14.60
2019-04-28T15:47:31.496Z,12.55
2019-04-28T15:50:02.486Z,18.35
2019-04-28T15:52:34.187Z,13.88
2019-04-28T15:55:07.514Z,19.40
2019-04-28T15:57:38.840Z,12.53
2019-04-28T16:00:11.973Z,16.35
2019-04-28T16:02:42.949Z,12.85
2019-04-28T16:05:14.391Z,13.55
2019-04-28T16:07:45.376Z,13.25
2019-04-28T16:10:16.910Z,14.98
2019-04-28T16:12:48.716Z,15.83
2019-04-28T16:15:19.794Z,21.35
2019-04-28T16:17:51.197Z,15.63
2019-04-28T16:20:22.711Z,15.38
2019-04-28T16:22:53.523Z,16.35
2019-04-28T16:25:24.454Z,15.85
2019-04-28T16:27:56.820Z,15.30
2019-04-28T16:30:28.292Z,13.28
2019-04-28T16:32:59.363Z,16.27
2019-04-28T16:35:31.593Z,12.65
2019-04-28T16:38:02.757Z,13.75
2019-04-28T16:40:34.595Z,11.18
2019-04-28T16:43:06.305Z,11.43
2019-04-28T16:45:37.342Z,17.50
2019-04-28T16:48:08.481Z,19.32
2019-04-28T16:50:39.772Z,14.25
2019-04-28T16:53:10.843Z,15.90
2019-04-28T16:55:43.542Z,15.85
2019-04-28T16:58:15.680Z,14.78
2019-04-28T17:00:48.073Z,18.05
2019-04-28T17:03:18.989Z,14.87
2019-04-28T17:05:50.032Z,13.30
2019-04-28T17:08:20.887Z,22.25
2019-04-28T17:10:52.115Z,14.15
2019-04-28T17:13:23.251Z,18.80
2019-04-28T17:15:54.426Z,17.17
2019-04-28T17:18:25.532Z,15.98
2019-04-28T17:20:56.398Z,19.05
2019-04-28T17:23:27.361Z,15.95
2019-04-28T17:25:58.227Z,18.30
2019-04-28T17:28:29.480Z,14.70
2019-04-28T17:31:01.346Z,16.02
2019-04-28T17:33:32.273Z,15.50
2019-04-28T17:36:03.478Z,15.90
2019-04-28T17:38:35.827Z,18.87
2019-04-28T17:41:07.458Z,16.32
2019-04-28T17:43:38.622Z,15.85
2019-04-28T17:46:09.750Z,20.30
2019-04-28T17:48:42.432Z,18.12
2019-04-28T17:51:13.230Z,18.73
2019-04-28T17:53:44.490Z,20.52
2019-04-28T17:56:15.600Z,20.45
2019-04-28T17:58:46.650Z,20.27
2019-04-28T18:01:19.175Z,19.57
2019-04-28T18:03:51.440Z,25.92
2019-04-28T18:06:23.842Z,25.10
2019-04-28T18:08:55.079Z,24.60
2019-04-28T18:11:26.121Z,30.75
2019-04-28T18:13:57.046Z,24.00
2019-04-28T18:16:29.936Z,24.45
2019-04-28T18:19:02.435Z,25.97
2019-04-28T18:21:33.470Z,27.95
2019-04-28T18:24:04.608Z,25.97
2019-04-28T18:26:35.740Z,24.92
2019-04-28T18:29:06.814Z,27.32
2019-04-28T18:31:37.969Z,31.07
2019-04-28T18:34:10.342Z,26.70
2019-04-28T18:36:42.875Z,22.13
2019-04-28T18:39:15.083Z,29.40
2019-04-28T18:41:47.367Z,28.00
2019-04-28T18:44:20.041Z,26.48
2019-04-28T18:46:51.257Z,25.75
2019-04-28T18:49:22.232Z,29.10
2019-04-28T18:51:53.165Z,24.60
2019-04-28T18:54:24.391Z,23.55
2019-04-28T18:56:55.262Z,27.70
2019-04-28T18:59:26.426Z,26.75
2019-04-28T19:01:58.763Z,26.12
2019-04-28T19:04:29.652Z,27.25
2019-04-28T19:07:05.340Z,25.75
2019-04-28T19:09:35.837Z,25.88
2019-04-28T19:12:08.184Z,23.18
2019-04-28T19:14:41.180Z,23.45
2019-04-28T19:17:14.886Z,26.30
2019-04-28T19:19:46.049Z,23.87
2019-04-28T19:22:16.988Z,23.47
2019-04-28T19:24:47.851Z,22.90
2019-04-28T19:27:18.951Z,22.02
2019-04-28T19:29:50.006Z,26.87
2019-04-28T19:32:21.020Z,21.73
2019-04-28T19:34:52.254Z,19.52
2019-04-28T19:37:23.546Z,20.30
2019-04-28T19:39:54.592Z,24.15
2019-04-28T19:42:25.530Z,26.25
2019-04-28T19:44:56.321Z,21.33
2019-04-28T19:47:27.094Z,23.60
2019-04-28T19:49:58.193Z,22.20
2019-04-28T19:52:29.274Z,22.93
2019-04-28T19:55:02.894Z,21.93
2019-04-28T19:57:35.118Z,24.02
2019-04-28T20:00:08.964Z,23.07
2019-04-28T20:02:40.037Z,22.90
2019-04-28T20:05:11.222Z,19.27
2019-04-28T20:07:42.073Z,21.48
2019-04-28T20:10:13.242Z,20.17
2019-04-28T20:12:44.411Z,18.20
2019-04-28T20:15:15.749Z,24.37
2019-04-28T20:17:46.817Z,23.80
2019-04-28T20:20:17.847Z,23.05
2019-04-28T20:22:49.083Z,23.02
2019-04-28T20:25:20.345Z,21.80
2019-04-28T20:27:51.369Z,18.37
2019-04-28T20:30:22.284Z,18.77
2019-04-28T20:33:06.150Z,20.37
2019-04-28T20:35:26.891Z,16.65
2019-04-28T20:37:59.147Z,22.00
2019-04-28T20:40:31.657Z,20.45
2019-04-28T20:43:04.082Z,19.32
2019-04-28T20:45:35.259Z,21.23
2019-04-28T20:48:07.515Z,20.95
2019-04-28T20:50:38.765Z,19.70
2019-04-28T20:53:09.853Z,19.82
2019-04-28T20:55:40.889Z,19.20
2019-04-28T20:58:12.019Z,18.95
2019-04-28T21:00:43.182Z,17.82
2019-04-28T21:03:14.006Z,22.70
2019-04-28T21:05:46.179Z,23.30
2019-04-28T21:08:16.922Z,23.20
2019-04-28T21:10:48.277Z,25.20
2019-04-28T21:13:19.149Z,23.07
2019-04-28T21:15:49.948Z,19.70
2019-04-28T21:18:21.242Z,17.90
2019-04-28T21:20:52.593Z,19.80
2019-04-28T21:23:23.479Z,19.73
2019-04-28T21:25:54.515Z,17.95
2019-04-28T21:28:25.452Z,19.15
2019-04-28T21:30:56.263Z,20.92
2019-04-28T21:33:27.270Z,20.37
2019-04-28T21:35:58.335Z,18.60
2019-04-28T21:38:29.175Z,19.07
2019-04-28T21:41:00.566Z,20.68
2019-04-28T21:43:32.967Z,18.25
2019-04-28T21:46:05.309Z,20.82
2019-04-28T21:48:37.838Z,16.57
2019-04-28T21:51:11.617Z,17.65
2019-04-28T21:53:41.227Z,16.65
2019-04-28T21:56:12.285Z,17.25
2019-04-28T21:58:44.318Z,20.45
2019-04-28T22:01:17.849Z,22.50
2019-04-28T22:03:49.730Z,17.23
2019-04-28T22:06:20.784Z,16.60
2019-04-28T22:08:51.799Z,16.05
2019-04-28T22:11:22.666Z,21.93
2019-04-28T22:13:53.828Z,16.25
2019-04-28T22:16:26.679Z,18.00
2019-04-28T22:18:57.605Z,19.00
2019-04-28T22:21:28.422Z,17.98
2019-04-28T22:24:01.235Z,17.62
2019-04-28T22:26:33.697Z,14.83
2019-04-28T22:29:04.940Z,17.10
2019-04-28T22:31:36.066Z,15.83
2019-04-28T22:34:07.298Z,14.53
2019-04-28T22:36:38.395Z,19.70
2019-04-28T22:39:09.866Z,15.75
2019-04-28T22:41:43.904Z,18.65
2019-04-28T22:44:14.837Z,17.00
2019-04-28T22:46:45.802Z,17.05
2019-04-28T22:49:16.837Z,16.02
2019-04-28T22:51:47.929Z,18.52
2019-04-28T22:54:20.517Z,16.65
2019-04-28T22:56:53.397Z,18.42
2019-04-28T22:59:25.874Z,19.70
2019-04-28T23:01:59.274Z,19.20
2019-04-28T23:04:31.873Z,20.55
2019-04-28T23:07:03.007Z,18.17
2019-04-28T23:09:34.214Z,22.02
2019-04-28T23:12:05.513Z,19.45
2019-04-28T23:14:36.647Z,20.12
2019-04-28T23:17:09.086Z,22.52
2019-04-28T23:19:41.241Z,19.37
2019-04-28T23:22:13.774Z,22.50
2019-04-28T23:24:45.477Z,19.52
2019-04-28T23:27:17.013Z,20.88
2019-04-28T23:29:47.805Z,30.23
2019-04-28T23:32:18.954Z,30.45
2019-04-28T23:34:49.734Z,30.23
2019-04-28T23:37:20.649Z,24.12
2019-04-28T23:39:51.655Z,23.22
2019-04-28T23:42:26.054Z,22.10
2019-04-28T23:44:57.093Z,19.42
2019-04-28T23:47:28.333Z,19.60
2019-04-28T23:49:59.514Z,18.62
2019-04-28T23:52:31.945Z,17.75
2019-04-28T23:55:04.480Z,19.23
2019-04-28T23:57:35.369Z,19.82
